Time;durP1;ratioP1;P1;durP2;ratioP2;P2;SDS_P1;SDS_P2;PMS_P1;PMS_P2;Temp;Humidity;BMP_temperature;BMP_pressure;BME280_temperature;BME280_humidity;BME280_pressure;Samples;Min_cycle;Max_cycle;Signal;HPM_P1;HPM_P2
2022/01/10 00:00:35;;;;;;;;;;;23.60;47.60;;;;;;1539978;77;819;-70
2022/01/10 00:02:37;;;;;;;;;;;23.60;47.50;;;;;;1576873;75;737;-70
2022/01/10 00:04:39;;;;;;;;;;;23.60;47.60;;;;;;1579299;75;822;-70
2022/01/10 00:06:41;;;;;;;;;;;23.70;47.80;;;;;;1546744;75;1092;-71
2022/01/10 00:08:43;;;;;;;;;;;23.60;47.60;;;;;;1576040;75;861;-72
2022/01/10 00:10:44;;;;;;;;;;;23.60;47.60;;;;;;1563801;75;784;-71
2022/01/10 00:12:46;;;;;;;;;;;23.60;47.70;;;;;;1579340;75;1978;-71
2022/01/10 00:14:48;;;;;;;;;;;23.70;47.80;;;;;;1579057;75;805;-70
2022/01/10 00:16:50;;;;;;;;;;;23.60;47.60;;;;;;1575359;75;1170;-70
2022/01/10 00:18:52;;;;;;;;;;;23.60;47.70;;;;;;1571531;75;754;-69
2022/01/10 00:20:54;;;;;;;;;;;23.60;47.70;;;;;;1576133;75;706;-69
2022/01/10 00:22:56;;;;;;;;;;;23.70;47.80;;;;;;1575681;75;734;-69
2022/01/10 00:24:57;;;;;;;;;;;23.70;47.80;;;;;;1567923;75;824;-71
2022/01/10 00:26:59;;;;;;;;;;;23.60;47.70;;;;;;1578979;75;1139;-70
2022/01/10 00:29:01;;;;;;;;;;;23.70;47.80;;;;;;1570034;75;813;-70
2022/01/10 00:31:03;;;;;;;;;;;23.70;47.80;;;;;;1577389;75;726;-70
2022/01/10 00:33:05;;;;;;;;;;;23.70;47.80;;;;;;1572527;75;1927;-70
2022/01/10 00:35:07;;;;;;;;;;;23.60;47.60;;;;;;1577325;75;822;-70
2022/01/10 00:37:09;;;;;;;;;;;23.70;47.70;;;;;;1578934;75;1100;-70
2022/01/10 00:39:11;;;;;;;;;;;23.60;47.60;;;;;;1573086;75;785;-70
2022/01/10 00:41:13;;;;;;;;;;;23.70;47.80;;;;;;1578410;75;663;-71
2022/01/10 00:43:19;;;;;;;;;;;23.70;47.80;;;;;;1573862;75;791;-71
2022/01/10 00:45:23;;;;;;;;;;;23.70;47.80;;;;;;1578048;75;1422;-70
2022/01/10 00:47:22;;;;;;;;;;;23.60;47.70;;;;;;1578551;75;1626;-69
2022/01/10 00:49:24;;;;;;;;;;;23.60;47.60;;;;;;1574686;75;777;-69
2022/01/10 00:51:26;;;;;;;;;;;23.70;47.80;;;;;;1580225;75;792;-69
2022/01/10 00:53:27;;;;;;;;;;;23.80;47.80;;;;;;1573424;75;1931;-72
2022/01/10 00:55:29;;;;;;;;;;;23.70;47.70;;;;;;1581085;75;737;-72
2022/01/10 00:57:31;;;;;;;;;;;23.70;47.70;;;;;;1579584;75;1153;-72
2022/01/10 00:59:33;;;;;;;;;;;23.70;47.70;;;;;;1574388;75;769;-70
2022/01/10 01:01:35;;;;;;;;;;;23.70;47.70;;;;;;1568865;75;837;-70
2022/01/10 01:03:37;;;;;;;;;;;23.70;47.60;;;;;;1576381;75;744;-70
2022/01/10 01:05:42;;;;;;;;;;;23.80;47.60;;;;;;1568920;75;810;-71
2022/01/10 01:07:42;;;;;;;;;;;23.70;47.60;;;;;;1572678;75;1669;-71
2022/01/10 01:09:51;;;;;;;;;;;23.70;47.60;;;;;;1561354;75;750;-71
2022/01/10 01:14:21;;;;;;;;;;;23.70;47.60;;;;;;1567008;75;1938;-69
2022/01/10 01:16:17;;;;;;;;;;;23.70;47.50;;;;;;1557576;75;1617;-71
2022/01/10 01:18:31;;;;;;;;;;;23.70;47.50;;;;;;1542527;75;1619;-72
2022/01/10 01:20:30;;;;;;;;;;;23.60;47.40;;;;;;1529602;77;1455;-70
2022/01/10 01:24:45;;;;;;;;;;;23.70;47.40;;;;;;1553548;76;1678;-70
2022/01/10 01:26:48;;;;;;;;;;;23.70;47.40;;;;;;1556698;76;1180;-71
2022/01/10 01:28:50;;;;;;;;;;;23.70;47.50;;;;;;1567598;76;745;-70
2022/01/10 01:30:52;;;;;;;;;;;23.70;47.50;;;;;;1555080;76;793;-71
2022/01/10 01:32:54;;;;;;;;;;;23.70;47.50;;;;;;1554926;76;824;-71
2022/01/10 01:35:02;;;;;;;;;;;23.60;47.30;;;;;;1555382;76;1942;-70
2022/01/10 01:36:59;;;;;;;;;;;23.60;47.30;;;;;;1537232;76;1629;-70
2022/01/10 01:39:05;;;;;;;;;;;23.70;47.50;;;;;;1537471;77;773;-69
2022/01/10 01:41:41;;;;;;;;;;;23.70;47.50;;;;;;1537507;76;1650;-68
2022/01/10 01:43:14;;;;;;;;;;;23.60;47.30;;;;;;1541085;75;1436;-70
2022/01/10 01:45:16;;;;;;;;;;;23.70;47.50;;;;;;1543817;76;754;-71
2022/01/10 01:47:18;;;;;;;;;;;23.70;47.60;;;;;;1567775;75;1208;-69
2022/01/10 01:49:20;;;;;;;;;;;23.70;47.50;;;;;;1579467;75;788;-70
2022/01/10 01:51:22;;;;;;;;;;;23.70;47.50;;;;;;1573704;75;757;-70
2022/01/10 01:53:24;;;;;;;;;;;23.80;47.40;;;;;;1580656;75;1937;-69
2022/01/10 01:55:26;;;;;;;;;;;23.70;47.60;;;;;;1568273;75;650;-70
2022/01/10 01:57:28;;;;;;;;;;;23.70;47.60;;;;;;1574972;75;1099;-70
2022/01/10 01:59:30;;;;;;;;;;;23.70;47.50;;;;;;1571370;75;827;-70
2022/01/10 02:01:33;;;;;;;;;;;23.70;47.50;;;;;;1577462;75;811;-70
2022/01/10 02:03:37;;;;;;;;;;;23.80;47.40;;;;;;1581886;75;693;-69
2022/01/10 02:05:38;;;;;;;;;;;23.70;47.30;;;;;;1569759;74;1696;-69
2022/01/10 02:07:40;;;;;;;;;;;23.70;47.30;;;;;;1579287;74;1151;-68
2022/01/10 02:09:42;;;;;;;;;;;23.80;47.30;;;;;;1575214;75;802;-69
2022/01/10 02:11:44;;;;;;;;;;;23.70;47.40;;;;;;1578744;75;802;-69
2022/01/10 02:13:45;;;;;;;;;;;23.70;47.50;;;;;;1580085;75;1949;-69
2022/01/10 02:15:51;;;;;;;;;;;23.80;47.60;;;;;;1578148;75;878;-69
2022/01/10 02:17:55;;;;;;;;;;;23.70;47.60;;;;;;1574188;75;1487;-70
2022/01/10 02:19:55;;;;;;;;;;;23.80;47.70;;;;;;1568657;75;1540;-69
2022/01/10 02:21:57;;;;;;;;;;;23.80;47.70;;;;;;1576840;75;788;-69
2022/01/10 02:23:59;;;;;;;;;;;23.70;47.60;;;;;;1551786;76;894;-70
2022/01/10 02:26:01;;;;;;;;;;;23.70;47.60;;;;;;1546311;75;1129;-70
2022/01/10 02:28:03;;;;;;;;;;;23.70;47.60;;;;;;1552147;76;733;-73
2022/01/10 02:30:05;;;;;;;;;;;23.70;47.60;;;;;;1550348;77;750;-71
2022/01/10 02:32:07;;;;;;;;;;;23.80;47.60;;;;;;1568323;75;896;-70
2022/01/10 02:34:10;;;;;;;;;;;23.70;47.60;;;;;;1547509;76;1945;-71
2022/01/10 02:36:20;;;;;;;;;;;23.80;47.60;;;;;;1539579;76;1158;-70
2022/01/10 02:38:15;;;;;;;;;;;23.80;47.60;;;;;;1550008;76;1537;-72
2022/01/10 02:40:19;;;;;;;;;;;23.80;47.60;;;;;;1543122;76;775;-71
2022/01/10 02:42:21;;;;;;;;;;;23.70;47.60;;;;;;1572268;75;2033;-71
2022/01/10 02:44:23;;;;;;;;;;;23.80;47.60;;;;;;1572300;75;734;-70
2022/01/10 02:46:25;;;;;;;;;;;23.70;47.60;;;;;;1552010;75;1152;-69
2022/01/10 02:48:27;;;;;;;;;;;23.70;47.60;;;;;;1551257;76;699;-70
2022/01/10 02:50:28;;;;;;;;;;;23.80;47.60;;;;;;1552170;76;746;-69
2022/01/10 02:52:30;;;;;;;;;;;23.80;47.60;;;;;;1551507;75;740;-70
2022/01/10 02:54:32;;;;;;;;;;;23.70;47.60;;;;;;1542842;75;1937;-69
2022/01/10 02:56:36;;;;;;;;;;;23.70;47.60;;;;;;1551428;75;1101;-69
2022/01/10 02:58:38;;;;;;;;;;;23.70;47.60;;;;;;1547494;76;1082;-69
2022/01/10 03:00:39;;;;;;;;;;;23.70;47.80;;;;;;1543574;76;792;-70
2022/01/10 03:02:43;;;;;;;;;;;23.70;47.80;;;;;;1535477;76;722;-69
2022/01/10 03:04:45;;;;;;;;;;;23.70;47.70;;;;;;1551304;76;727;-69
2022/01/10 03:06:48;;;;;;;;;;;23.70;47.70;;;;;;1551936;75;1189;-69
2022/01/10 03:08:50;;;;;;;;;;;23.80;47.80;;;;;;1573878;75;816;-71
2022/01/10 03:10:52;;;;;;;;;;;23.60;47.60;;;;;;1576678;75;792;-70
2022/01/10 03:12:54;;;;;;;;;;;23.70;47.80;;;;;;1545064;76;793;-69
2022/01/10 03:14:56;;;;;;;;;;;23.60;47.60;;;;;;1546683;76;1946;-70
2022/01/10 03:16:58;;;;;;;;;;;23.70;47.80;;;;;;1552020;76;1130;-71
2022/01/10 03:18:59;;;;;;;;;;;23.60;47.70;;;;;;1546784;76;793;-70
2022/01/10 03:21:01;;;;;;;;;;;23.70;47.80;;;;;;1551243;76;750;-69
2022/01/10 03:23:03;;;;;;;;;;;23.70;47.90;;;;;;1547420;76;746;-70
2022/01/10 03:25:05;;;;;;;;;;;23.60;47.80;;;;;;1546777;75;866;-70
2022/01/10 03:27:07;;;;;;;;;;;23.60;47.80;;;;;;1551676;75;1160;-70
2022/01/10 03:29:09;;;;;;;;;;;23.60;47.70;;;;;;1551993;76;746;-70
2022/01/10 03:31:11;;;;;;;;;;;23.60;47.80;;;;;;1552322;76;727;-68
2022/01/10 03:33:14;;;;;;;;;;;23.60;47.80;;;;;;1552283;76;779;-68
2022/01/10 03:35:16;;;;;;;;;;;23.70;47.90;;;;;;1551758;76;1901;-69
2022/01/10 03:37:18;;;;;;;;;;;23.60;47.70;;;;;;1551652;75;1128;-69
2022/01/10 03:39:20;;;;;;;;;;;23.70;47.80;;;;;;1552139;76;885;-69
2022/01/10 03:41:22;;;;;;;;;;;23.70;47.80;;;;;;1527931;77;778;-69
2022/01/10 03:43:23;;;;;;;;;;;23.80;47.80;;;;;;1533173;77;683;-69
2022/01/10 03:45:25;;;;;;;;;;;23.80;47.60;;;;;;1536164;77;768;-71
2022/01/10 03:47:27;;;;;;;;;;;23.80;47.60;;;;;;1552263;75;1080;-69
2022/01/10 03:49:29;;;;;;;;;;;23.70;47.60;;;;;;1551240;76;737;-69
2022/01/10 03:51:31;;;;;;;;;;;23.80;47.50;;;;;;1543963;76;760;-72
2022/01/10 03:53:33;;;;;;;;;;;23.80;47.50;;;;;;1573563;75;727;-72
2022/01/10 03:55:35;;;;;;;;;;;23.80;47.60;;;;;;1540876;76;1925;-71
2022/01/10 03:57:37;;;;;;;;;;;23.90;47.60;;;;;;1544018;76;1138;-71
2022/01/10 03:59:39;;;;;;;;;;;23.90;47.60;;;;;;1544059;76;612;-70
2022/01/10 04:01:40;;;;;;;;;;;23.90;47.50;;;;;;1540896;76;790;-71
2022/01/10 04:03:42;;;;;;;;;;;23.80;47.40;;;;;;1576682;74;649;-71
2022/01/10 04:05:44;;;;;;;;;;;23.80;47.50;;;;;;1577333;75;799;-71
2022/01/10 04:07:46;;;;;;;;;;;23.80;47.50;;;;;;1551867;76;1147;-71
2022/01/10 04:09:48;;;;;;;;;;;23.80;47.40;;;;;;1550016;75;767;-71
2022/01/10 04:11:50;;;;;;;;;;;23.80;47.30;;;;;;1543443;76;734;-71
2022/01/10 04:13:52;;;;;;;;;;;23.90;47.40;;;;;;1545193;75;830;-71
2022/01/10 04:15:54;;;;;;;;;;;23.80;47.30;;;;;;1539659;76;1936;-75
2022/01/10 04:17:57;;;;;;;;;;;23.80;47.30;;;;;;1543607;76;1113;-76
2022/01/10 04:19:59;;;;;;;;;;;23.80;47.20;;;;;;1542568;76;732;-72
2022/01/10 04:22:01;;;;;;;;;;;23.70;47.30;;;;;;1536927;75;756;-70
2022/01/10 04:24:02;;;;;;;;;;;23.70;47.30;;;;;;1539847;76;746;-70
2022/01/10 04:26:04;;;;;;;;;;;23.80;47.30;;;;;;1551753;75;1253;-70
2022/01/10 04:28:06;;;;;;;;;;;23.70;47.40;;;;;;1529828;77;799;-70
2022/01/10 04:30:08;;;;;;;;;;;23.80;47.30;;;;;;1555852;76;824;-71
2022/01/10 04:32:12;;;;;;;;;;;23.80;47.30;;;;;;1560890;76;823;-70
2022/01/10 04:34:15;;;;;;;;;;;23.70;47.20;;;;;;1561072;76;760;-70
2022/01/10 04:36:17;;;;;;;;;;;23.70;47.20;;;;;;1561521;75;1132;-70
2022/01/10 04:38:19;;;;;;;;;;;23.80;47.20;;;;;;1560478;76;733;-72
2022/01/10 04:40:21;;;;;;;;;;;23.70;47.10;;;;;;1560359;76;677;-71
2022/01/10 04:42:23;;;;;;;;;;;23.80;47.10;;;;;;1561050;76;782;-74
2022/01/10 04:44:25;;;;;;;;;;;23.70;47.10;;;;;;1558370;76;732;-71
2022/01/10 04:46:26;;;;;;;;;;;23.70;47.10;;;;;;1526057;77;1139;-70
2022/01/10 04:48:28;;;;;;;;;;;23.80;47.10;;;;;;1533212;77;791;-71
2022/01/10 04:51:00;;;;;;;;;;;23.70;47.10;;;;;;1536716;77;790;-71
2022/01/10 04:52:36;;;;;;;;;;;23.70;47.10;;;;;;1545238;77;1527;-70
2022/01/10 04:54:38;;;;;;;;;;;23.70;47.10;;;;;;1572622;75;1942;-71
2022/01/10 04:56:40;;;;;;;;;;;23.70;47.10;;;;;;1549644;76;1104;-71
2022/01/10 04:58:42;;;;;;;;;;;23.80;47.20;;;;;;1552226;76;655;-72
2022/01/10 05:00:44;;;;;;;;;;;23.70;47.20;;;;;;1573638;75;795;-72
2022/01/10 05:02:47;;;;;;;;;;;23.70;47.20;;;;;;1566739;75;732;-70
2022/01/10 05:04:49;;;;;;;;;;;23.70;47.20;;;;;;1575079;75;1896;-68
2022/01/10 05:06:51;;;;;;;;;;;23.70;47.30;;;;;;1579951;75;1190;-72
2022/01/10 05:08:53;;;;;;;;;;;23.70;47.20;;;;;;1562024;75;767;-72
2022/01/10 05:10:55;;;;;;;;;;;23.60;47.10;;;;;;1571637;75;681;-72
2022/01/10 05:12:57;;;;;;;;;;;23.70;47.30;;;;;;1547645;76;803;-71
2022/01/10 05:14:59;;;;;;;;;;;23.70;47.30;;;;;;1550665;76;1965;-72
2022/01/10 05:17:01;;;;;;;;;;;23.70;47.30;;;;;;1552099;76;1153;-70
2022/01/10 05:19:02;;;;;;;;;;;23.60;47.20;;;;;;1524299;77;735;-71
2022/01/10 05:21:04;;;;;;;;;;;23.70;47.20;;;;;;1557245;75;800;-71
2022/01/10 05:23:06;;;;;;;;;;;23.70;47.30;;;;;;1549020;76;726;-71
2022/01/10 05:25:08;;;;;;;;;;;23.60;47.10;;;;;;1552238;76;718;-71
2022/01/10 05:27:10;;;;;;;;;;;23.60;47.10;;;;;;1551403;75;1122;-70
2022/01/10 05:29:12;;;;;;;;;;;23.70;47.30;;;;;;1529346;77;830;-73
2022/01/10 05:31:14;;;;;;;;;;;23.60;47.10;;;;;;1545429;75;731;-74
2022/01/10 05:33:16;;;;;;;;;;;23.60;47.10;;;;;;1547871;76;740;-70
2022/01/10 05:35:18;;;;;;;;;;;23.60;47.10;;;;;;1545135;76;1923;-70
2022/01/10 05:37:19;;;;;;;;;;;23.60;47.20;;;;;;1551093;75;1121;-70
2022/01/10 05:39:21;;;;;;;;;;;23.60;47.20;;;;;;1552113;76;775;-70
2022/01/10 05:41:24;;;;;;;;;;;23.50;47.20;;;;;;1537954;76;939;-70
2022/01/10 05:43:26;;;;;;;;;;;23.50;47.20;;;;;;1541800;76;762;-70
2022/01/10 05:45:28;;;;;;;;;;;23.60;47.20;;;;;;1565213;75;791;-70
2022/01/10 05:47:30;;;;;;;;;;;23.60;47.20;;;;;;1579376;74;1118;-70
2022/01/10 05:49:34;;;;;;;;;;;23.60;47.20;;;;;;1565870;75;717;-69
2022/01/10 05:51:36;;;;;;;;;;;23.60;47.20;;;;;;1574757;75;1555;-70
2022/01/10 05:53:38;;;;;;;;;;;23.60;47.20;;;;;;1545199;76;899;-71
2022/01/10 05:55:40;;;;;;;;;;;23.50;47.20;;;;;;1538349;76;1959;-69
2022/01/10 05:57:42;;;;;;;;;;;23.50;47.20;;;;;;1539382;75;1128;-69
2022/01/10 05:59:43;;;;;;;;;;;23.60;47.20;;;;;;1578025;75;814;-72
2022/01/10 06:01:46;;;;;;;;;;;23.60;47.30;;;;;;1575556;75;772;-71
2022/01/10 06:03:48;;;;;;;;;;;23.60;47.30;;;;;;1580585;75;702;-71
2022/01/10 06:05:50;;;;;;;;;;;23.60;47.30;;;;;;1572580;75;946;-71
2022/01/10 06:07:52;;;;;;;;;;;23.60;47.30;;;;;;1577300;75;1113;-69
2022/01/10 06:09:53;;;;;;;;;;;23.60;47.30;;;;;;1561781;75;778;-69
2022/01/10 06:11:55;;;;;;;;;;;23.60;47.30;;;;;;1565430;75;792;-69
2022/01/10 06:13:57;;;;;;;;;;;23.60;47.30;;;;;;1575852;75;797;-69
2022/01/10 06:15:59;;;;;;;;;;;23.60;47.30;;;;;;1578464;75;1938;-70
2022/01/10 06:18:01;;;;;;;;;;;23.60;47.40;;;;;;1573556;75;688;-70
2022/01/10 06:20:03;;;;;;;;;;;23.60;47.40;;;;;;1578813;75;673;-70
2022/01/10 06:22:05;;;;;;;;;;;23.60;47.40;;;;;;1575414;75;819;-73
2022/01/10 06:24:07;;;;;;;;;;;23.60;47.60;;;;;;1579526;75;745;-71
2022/01/10 06:26:09;;;;;;;;;;;23.60;47.60;;;;;;1546001;75;1104;-69
2022/01/10 06:28:11;;;;;;;;;;;23.60;47.50;;;;;;1550994;76;777;-69
2022/01/10 06:30:13;;;;;;;;;;;23.60;47.60;;;;;;1551346;76;757;-70
2022/01/10 06:32:14;;;;;;;;;;;23.50;47.60;;;;;;1552328;76;723;-71
2022/01/10 06:34:18;;;;;;;;;;;23.50;47.60;;;;;;1556204;75;812;-70
2022/01/10 06:36:20;;;;;;;;;;;23.50;47.50;;;;;;1560107;74;1913;-72
2022/01/10 06:38:21;;;;;;;;;;;23.50;47.50;;;;;;1546159;76;830;-70
2022/01/10 06:40:23;;;;;;;;;;;23.50;47.50;;;;;;1556141;76;714;-70
2022/01/10 06:42:25;;;;;;;;;;;23.50;47.50;;;;;;1551533;75;813;-70
2022/01/10 06:44:27;;;;;;;;;;;23.40;47.30;;;;;;1575148;75;707;-71
2022/01/10 06:46:29;;;;;;;;;;;23.40;47.30;;;;;;1581799;75;1227;-70
2022/01/10 06:48:31;;;;;;;;;;;23.50;47.40;;;;;;1567680;75;646;-74
2022/01/10 06:50:33;;;;;;;;;;;23.50;47.30;;;;;;1580643;75;678;-72
2022/01/10 06:52:35;;;;;;;;;;;23.40;47.20;;;;;;1570636;75;820;-72
2022/01/10 06:54:36;;;;;;;;;;;23.40;47.10;;;;;;1577013;75;809;-72
2022/01/10 06:56:38;;;;;;;;;;;23.50;47.30;;;;;;1580601;75;1933;-68
2022/01/10 06:58:40;;;;;;;;;;;23.40;47.20;;;;;;1572722;75;775;-73
2022/01/10 07:00:42;;;;;;;;;;;23.50;47.20;;;;;;1567028;75;778;-71
2022/01/10 07:02:44;;;;;;;;;;;23.50;47.20;;;;;;1579401;75;753;-71
2022/01/10 07:04:46;;;;;;;;;;;23.40;47.10;;;;;;1578303;75;741;-71
2022/01/10 07:06:48;;;;;;;;;;;23.40;47.10;;;;;;1580057;75;1136;-73
2022/01/10 07:08:50;;;;;;;;;;;23.40;47.10;;;;;;1578628;75;781;-70
2022/01/10 07:10:51;;;;;;;;;;;23.40;47.10;;;;;;1577174;75;759;-73
2022/01/10 07:12:54;;;;;;;;;;;23.50;47.10;;;;;;1573324;75;762;-66
2022/01/10 07:14:55;;;;;;;;;;;23.40;47.00;;;;;;1577482;75;786;-68
2022/01/10 07:16:57;;;;;;;;;;;23.40;46.60;;;;;;1559782;75;1931;-66
2022/01/10 07:18:59;;;;;;;;;;;23.40;45.70;;;;;;1578884;75;792;-67
2022/01/10 07:21:01;;;;;;;;;;;23.30;45.20;;;;;;1579642;75;770;-68
2022/01/10 07:23:03;;;;;;;;;;;23.40;44.70;;;;;;1574411;75;674;-68
2022/01/10 07:25:05;;;;;;;;;;;23.30;44.40;;;;;;1573316;75;791;-69
2022/01/10 07:27:07;;;;;;;;;;;23.30;44.10;;;;;;1573778;75;1143;-68
2022/01/10 07:29:11;;;;;;;;;;;23.30;43.60;;;;;;1581434;75;727;-67
2022/01/10 07:31:12;;;;;;;;;;;23.30;43.40;;;;;;1569375;75;1680;-72
2022/01/10 07:33:14;;;;;;;;;;;23.20;43.10;;;;;;1575777;75;667;-68
2022/01/10 07:35:16;;;;;;;;;;;23.20;42.80;;;;;;1568095;75;821;-68
2022/01/10 07:37:20;;;;;;;;;;;23.20;42.80;;;;;;1578374;75;1954;-67
2022/01/10 07:39:21;;;;;;;;;;;23.10;42.70;;;;;;1581442;75;769;-68
2022/01/10 07:41:23;;;;;;;;;;;23.20;42.80;;;;;;1570313;75;780;-68
2022/01/10 07:43:25;;;;;;;;;;;23.10;42.80;;;;;;1574404;75;701;-67
2022/01/10 07:45:27;;;;;;;;;;;23.10;42.80;;;;;;1571083;75;962;-68
2022/01/10 07:47:29;;;;;;;;;;;23.10;42.60;;;;;;1569915;74;1164;-73
2022/01/10 07:49:31;;;;;;;;;;;23.00;42.00;;;;;;1544169;76;782;-74
2022/01/10 07:51:33;;;;;;;;;;;23.00;41.50;;;;;;1577582;75;824;-77
2022/01/10 07:53:35;;;;;;;;;;;23.00;42.20;;;;;;1538343;76;733;-75
2022/01/10 07:55:37;;;;;;;;;;;23.00;42.60;;;;;;1567759;75;1944;-74
2022/01/10 07:57:39;;;;;;;;;;;22.90;43.10;;;;;;1575560;75;1136;-75
2022/01/10 07:59:40;;;;;;;;;;;23.00;43.10;;;;;;1569170;75;759;-70
2022/01/10 08:01:44;;;;;;;;;;;22.90;43.60;;;;;;1571160;75;790;-70
2022/01/10 08:03:50;;;;;;;;;;;22.90;43.90;;;;;;1572150;75;741;-70
2022/01/10 08:05:52;;;;;;;;;;;22.90;43.90;;;;;;1564713;75;757;-72
2022/01/10 08:07:54;;;;;;;;;;;22.90;44.00;;;;;;1569639;75;1149;-70
2022/01/10 08:09:56;;;;;;;;;;;22.80;44.20;;;;;;1573789;75;658;-70
2022/01/10 08:12:02;;;;;;;;;;;22.70;44.40;;;;;;1549911;76;690;-71
2022/01/10 08:14:02;;;;;;;;;;;22.70;44.50;;;;;;1528725;76;1186;-69
2022/01/10 08:16:04;;;;;;;;;;;22.70;44.70;;;;;;1576127;75;1923;-73
2022/01/10 08:18:06;;;;;;;;;;;22.60;44.80;;;;;;1574769;75;724;-70
2022/01/10 08:20:08;;;;;;;;;;;22.60;45.00;;;;;;1568027;75;658;-72
2022/01/10 08:22:11;;;;;;;;;;;22.60;45.20;;;;;;1526118;76;830;-72
2022/01/10 08:24:12;;;;;;;;;;;22.60;45.30;;;;;;1565809;75;743;-72
2022/01/10 08:26:14;;;;;;;;;;;22.60;45.30;;;;;;1551599;75;1140;-69
2022/01/10 08:28:16;;;;;;;;;;;22.60;45.40;;;;;;1544362;77;715;-69
2022/01/10 08:30:18;;;;;;;;;;;22.60;45.50;;;;;;1538265;77;780;-70
2022/01/10 08:32:20;;;;;;;;;;;22.60;45.50;;;;;;1542153;77;648;-70
2022/01/10 08:34:24;;;;;;;;;;;22.60;45.60;;;;;;1535104;77;800;-70
2022/01/10 08:36:27;;;;;;;;;;;22.60;45.60;;;;;;1569435;75;1908;-70
2022/01/10 08:38:29;;;;;;;;;;;22.60;45.70;;;;;;1571240;75;2005;-70
2022/01/10 08:40:31;;;;;;;;;;;22.50;45.70;;;;;;1569727;75;774;-69
2022/01/10 08:42:33;;;;;;;;;;;22.60;45.70;;;;;;1569424;75;804;-73
2022/01/10 08:44:35;;;;;;;;;;;22.60;45.80;;;;;;1576295;75;747;-68
2022/01/10 08:46:36;;;;;;;;;;;22.60;45.80;;;;;;1566714;75;1176;-70
2022/01/10 08:48:38;;;;;;;;;;;22.60;45.90;;;;;;1543063;75;681;-70
2022/01/10 08:50:40;;;;;;;;;;;22.60;45.90;;;;;;1548480;76;777;-71
2022/01/10 08:52:42;;;;;;;;;;;22.60;45.90;;;;;;1578916;75;737;-73
2022/01/10 08:54:45;;;;;;;;;;;22.60;45.80;;;;;;1518401;76;788;-69
2022/01/10 08:56:47;;;;;;;;;;;22.70;45.80;;;;;;1561868;75;1909;-70
2022/01/10 08:58:49;;;;;;;;;;;22.70;45.80;;;;;;1550627;76;778;-69
2022/01/10 09:00:51;;;;;;;;;;;22.70;45.60;;;;;;1553642;76;816;-71
2022/01/10 09:02:53;;;;;;;;;;;22.80;45.50;;;;;;1577771;75;792;-69
2022/01/10 09:04:56;;;;;;;;;;;22.90;45.50;;;;;;1570989;75;789;-70
2022/01/10 09:06:59;;;;;;;;;;;22.90;45.20;;;;;;1570022;74;1161;-69
2022/01/10 09:09:03;;;;;;;;;;;23.20;45.00;;;;;;1562911;75;790;-69
2022/01/10 09:11:05;;;;;;;;;;;23.20;44.70;;;;;;1567296;75;1517;-70
2022/01/10 09:13:07;;;;;;;;;;;23.30;44.70;;;;;;1572838;75;774;-70
2022/01/10 09:15:09;;;;;;;;;;;23.30;44.60;;;;;;1577462;75;794;-69
2022/01/10 09:17:11;;;;;;;;;;;23.30;44.60;;;;;;1580518;75;1913;-70
2022/01/10 09:19:13;;;;;;;;;;;23.30;44.50;;;;;;1572171;75;732;-70
2022/01/10 09:21:15;;;;;;;;;;;23.30;44.50;;;;;;1566484;75;787;-70
2022/01/10 09:23:17;;;;;;;;;;;23.40;44.40;;;;;;1568906;75;822;-69
2022/01/10 09:25:19;;;;;;;;;;;23.30;44.40;;;;;;1576426;75;703;-70
2022/01/10 09:27:21;;;;;;;;;;;23.30;44.50;;;;;;1574709;75;1167;-70
2022/01/10 09:29:23;;;;;;;;;;;23.30;44.50;;;;;;1577578;75;756;-70
2022/01/10 09:31:25;;;;;;;;;;;23.30;44.60;;;;;;1579878;75;768;-68
2022/01/10 09:33:27;;;;;;;;;;;23.30;44.50;;;;;;1573879;75;782;-68
2022/01/10 09:35:29;;;;;;;;;;;23.30;44.60;;;;;;1575800;75;807;-70
2022/01/10 09:37:31;;;;;;;;;;;23.30;44.70;;;;;;1581557;75;1946;-68
2022/01/10 09:39:33;;;;;;;;;;;23.30;44.70;;;;;;1574007;75;701;-65
2022/01/10 09:41:35;;;;;;;;;;;23.30;44.70;;;;;;1580645;75;721;-68
2022/01/10 09:43:36;;;;;;;;;;;23.30;44.70;;;;;;1566322;75;744;-68
2022/01/10 09:45:38;;;;;;;;;;;23.20;44.70;;;;;;1577018;75;802;-68
2022/01/10 09:47:40;;;;;;;;;;;23.30;44.80;;;;;;1539366;76;1161;-68
2022/01/10 09:49:42;;;;;;;;;;;23.30;44.80;;;;;;1556918;76;738;-70
2022/01/10 09:51:44;;;;;;;;;;;23.20;44.70;;;;;;1545183;76;773;-72
2022/01/10 09:53:46;;;;;;;;;;;23.20;44.70;;;;;;1548079;76;806;-73
2022/01/10 09:55:48;;;;;;;;;;;23.20;44.80;;;;;;1554869;76;763;-69
2022/01/10 09:57:50;;;;;;;;;;;23.20;44.80;;;;;;1561404;76;1943;-70
2022/01/10 09:59:52;;;;;;;;;;;23.20;44.80;;;;;;1556498;76;682;-69
2022/01/10 10:01:54;;;;;;;;;;;23.30;44.90;;;;;;1575695;75;759;-70
2022/01/10 10:03:58;;;;;;;;;;;23.30;44.90;;;;;;1544102;76;719;-70
2022/01/10 10:06:00;;;;;;;;;;;23.30;44.80;;;;;;1536645;76;1686;-72
2022/01/10 10:08:01;;;;;;;;;;;23.30;44.80;;;;;;1534495;76;725;-69
2022/01/10 10:10:07;;;;;;;;;;;23.30;44.80;;;;;;1530265;76;798;-70
2022/01/10 10:12:07;;;;;;;;;;;23.30;44.80;;;;;;1547529;76;1749;-72
2022/01/10 10:14:10;;;;;;;;;;;23.30;44.80;;;;;;1561147;75;1117;-74
2022/01/10 10:16:14;;;;;;;;;;;23.30;44.80;;;;;;1560347;75;1128;-73
2022/01/10 10:18:16;;;;;;;;;;;23.30;44.80;;;;;;1559964;76;1918;-72
2022/01/10 10:20:21;;;;;;;;;;;23.30;44.80;;;;;;1552058;76;747;-72
2022/01/10 10:22:23;;;;;;;;;;;23.20;44.80;;;;;;1550318;76;853;-73
2022/01/10 10:24:25;;;;;;;;;;;23.20;44.80;;;;;;1549225;76;664;-73
2022/01/10 10:26:27;;;;;;;;;;;23.20;44.90;;;;;;1550911;75;1152;-73
2022/01/10 10:28:29;;;;;;;;;;;23.20;44.90;;;;;;1540550;76;781;-73
2022/01/10 10:30:31;;;;;;;;;;;23.20;45.00;;;;;;1550522;76;705;-72
2022/01/10 10:32:33;;;;;;;;;;;23.20;45.00;;;;;;1576366;75;701;-73
2022/01/10 10:34:35;;;;;;;;;;;23.20;45.00;;;;;;1569464;75;597;-73
2022/01/10 10:36:37;;;;;;;;;;;23.20;45.00;;;;;;1571214;75;1957;-73
2022/01/10 10:38:39;;;;;;;;;;;23.20;45.10;;;;;;1538669;76;744;-73
2022/01/10 10:40:44;;;;;;;;;;;23.20;45.10;;;;;;1539456;76;754;-72
2022/01/10 10:42:46;;;;;;;;;;;23.20;45.10;;;;;;1538914;76;934;-72
2022/01/10 10:44:48;;;;;;;;;;;23.20;45.10;;;;;;1547179;76;767;-72
2022/01/10 10:46:50;;;;;;;;;;;23.20;45.20;;;;;;1554525;76;1137;-73
2022/01/10 10:49:03;;;;;;;;;;;23.20;45.20;;;;;;1551907;76;771;-73
2022/01/10 10:50:59;;;;;;;;;;;23.20;45.20;;;;;;1544030;76;1561;-73
2022/01/10 10:53:03;;;;;;;;;;;23.20;45.20;;;;;;1554885;76;720;-72
2022/01/10 10:55:06;;;;;;;;;;;23.20;45.20;;;;;;1554887;76;1054;-71
2022/01/10 10:57:08;;;;;;;;;;;23.20;45.20;;;;;;1542686;76;1943;-73
2022/01/10 10:59:11;;;;;;;;;;;23.20;45.30;;;;;;1560100;76;736;-74
2022/01/10 11:01:13;;;;;;;;;;;23.20;45.40;;;;;;1558928;76;710;-71
2022/01/10 11:03:18;;;;;;;;;;;23.20;45.30;;;;;;1556712;76;710;-72
2022/01/10 11:05:18;;;;;;;;;;;23.10;45.40;;;;;;1572956;75;1646;-72
2022/01/10 11:07:23;;;;;;;;;;;23.10;45.40;;;;;;1552011;75;1132;-72
2022/01/10 11:09:24;;;;;;;;;;;23.20;45.40;;;;;;1551645;76;1699;-72
2022/01/10 11:11:26;;;;;;;;;;;23.20;45.40;;;;;;1536679;77;723;-73
2022/01/10 11:13:28;;;;;;;;;;;23.20;45.50;;;;;;1550205;76;651;-73
2022/01/10 11:15:29;;;;;;;;;;;23.10;45.50;;;;;;1525583;77;720;-73
2022/01/10 11:17:31;;;;;;;;;;;23.20;45.50;;;;;;1540930;76;1964;-73
2022/01/10 11:19:33;;;;;;;;;;;23.10;45.50;;;;;;1596474;73;798;-71
2022/01/10 11:21:37;;;;;;;;;;;23.20;45.60;;;;;;1598829;73;797;-72
2022/01/10 11:23:39;;;;;;;;;;;23.20;45.70;;;;;;1608214;73;1695;-72
2022/01/10 11:25:42;;;;;;;;;;;23.20;45.70;;;;;;1596777;73;832;-72
2022/01/10 11:27:44;;;;;;;;;;;23.20;45.60;;;;;;1605993;73;1146;-72
2022/01/10 11:29:46;;;;;;;;;;;23.20;45.70;;;;;;1604789;73;781;-72
2022/01/10 11:31:48;;;;;;;;;;;23.20;45.60;;;;;;1590923;74;1056;-71
2022/01/10 11:33:50;;;;;;;;;;;23.20;45.60;;;;;;1605370;73;722;-72
2022/01/10 11:35:54;;;;;;;;;;;23.20;45.60;;;;;;1606124;73;763;-71
2022/01/10 11:37:55;;;;;;;;;;;23.20;45.60;;;;;;1614107;73;1933;-72
2022/01/10 11:39:57;;;;;;;;;;;23.20;45.60;;;;;;1606772;73;748;-72
2022/01/10 11:41:59;;;;;;;;;;;23.30;45.70;;;;;;1599704;73;737;-72
2022/01/10 11:44:07;;;;;;;;;;;23.20;45.50;;;;;;1576673;74;1340;-72
2022/01/10 11:46:16;;;;;;;;;;;23.20;45.50;;;;;;1598913;73;1604;-72
2022/01/10 11:48:18;;;;;;;;;;;23.10;45.50;;;;;;1599669;73;908;-73
2022/01/10 11:50:26;;;;;;;;;;;23.20;45.50;;;;;;1606464;73;1083;-72
2022/01/10 11:52:28;;;;;;;;;;;23.20;45.50;;;;;;1597441;73;719;-71
2022/01/10 11:54:31;;;;;;;;;;;23.10;45.50;;;;;;1602151;73;813;-71
2022/01/10 11:56:33;;;;;;;;;;;23.20;45.50;;;;;;1594348;73;1163;-71
2022/01/10 11:58:35;;;;;;;;;;;23.10;45.50;;;;;;1604261;73;1930;-72
2022/01/10 12:00:36;;;;;;;;;;;23.20;45.50;;;;;;1610699;73;724;-71
2022/01/10 12:02:38;;;;;;;;;;;23.20;45.50;;;;;;1602814;73;733;-71
2022/01/10 12:04:41;;;;;;;;;;;23.20;45.50;;;;;;1596987;73;775;-70
2022/01/10 12:06:43;;;;;;;;;;;23.20;45.50;;;;;;1613109;72;1151;-71
2022/01/10 12:08:45;;;;;;;;;;;23.20;45.30;;;;;;1599366;73;742;-72
2022/01/10 12:10:47;;;;;;;;;;;23.20;45.30;;;;;;1597401;73;743;-72
2022/01/10 12:12:54;;;;;;;;;;;23.30;45.30;;;;;;1601496;73;1040;-71